createdAt,value
2023-04-20T00:00:58.803Z,45.57
2023-04-20T00:05:01.570Z,45.41
2023-04-20T00:09:03.095Z,45.41
2023-04-20T00:13:04.527Z,44.28
2023-04-20T00:17:05.973Z,44.13
2023-04-20T00:21:08.696Z,44.83
2023-04-20T00:25:10.173Z,44.03
2023-04-20T00:29:11.617Z,44.40
2023-04-20T00:33:13.102Z,43.98
2023-04-20T00:37:15.853Z,44.04
2023-04-20T00:41:17.256Z,43.41
2023-04-20T00:45:18.802Z,43.92
2023-04-20T00:49:20.281Z,42.65
2023-04-20T00:53:23.439Z,43.56
2023-04-20T00:57:26.256Z,43.41
2023-04-20T01:01:27.764Z,43.07
2023-04-20T01:05:29.478Z,42.61
2023-04-20T01:09:32.247Z,42.90
2023-04-20T01:13:33.644Z,43.09
2023-04-20T01:17:35.836Z,43.91
2023-04-20T01:21:37.476Z,43.94
2023-04-20T01:25:40.470Z,43.27
2023-04-20T01:29:42.450Z,43.97
2023-04-20T01:33:44.003Z,43.61
2023-04-20T01:37:45.417Z,43.97
2023-04-20T01:41:48.242Z,44.59
2023-04-20T01:45:49.877Z,43.60
2023-04-20T01:49:51.278Z,44.24
2023-04-20T01:53:52.680Z,44.40
2023-04-20T01:57:55.500Z,44.11
2023-04-20T02:01:56.923Z,44.02
2023-04-20T02:05:58.376Z,43.90
2023-04-20T02:09:59.763Z,43.75
2023-04-20T02:14:02.609Z,45.05
2023-04-20T02:18:04.379Z,44.25
2023-04-20T02:22:05.977Z,44.67
2023-04-20T02:26:07.393Z,44.14
2023-04-20T02:30:11.043Z,43.78
2023-04-20T02:34:12.640Z,43.70
2023-04-20T02:38:14.081Z,44.02
2023-04-20T02:42:15.487Z,43.24
2023-04-20T02:46:18.723Z,43.47
2023-04-20T02:50:20.383Z,44.22
2023-04-20T02:54:22.077Z,45.05
2023-04-20T02:58:23.473Z,46.14
2023-04-20T03:02:26.334Z,46.30
2023-04-20T03:06:27.933Z,45.68
2023-04-20T03:10:29.561Z,46.34
2023-04-20T03:14:31.011Z,45.22
2023-04-20T03:18:33.966Z,45.81
2023-04-20T03:22:35.403Z,45.13
2023-04-20T03:26:36.773Z,44.04
2023-04-20T03:30:38.385Z,44.82
2023-04-20T03:34:41.118Z,44.35
2023-04-20T03:38:42.550Z,43.90
2023-04-20T03:42:44.253Z,44.41
2023-04-20T03:46:45.641Z,44.63
2023-04-20T03:50:48.400Z,43.24
2023-04-20T03:54:49.900Z,43.97
2023-04-20T03:58:51.384Z,43.38
2023-04-20T04:02:52.985Z,43.38
2023-04-20T04:06:55.878Z,43.73
2023-04-20T04:10:57.529Z,42.90
2023-04-20T04:14:59.011Z,43.41
2023-04-20T04:19:00.439Z,43.82
2023-04-20T04:23:03.191Z,45.67
2023-04-20T04:27:06.055Z,46.83
2023-04-20T04:31:07.756Z,47.38
2023-04-20T04:35:09.319Z,46.97
2023-04-20T04:39:14.663Z,48.47
2023-04-20T04:43:16.297Z,47.77
2023-04-20T04:47:17.862Z,47.73
2023-04-20T04:51:19.260Z,48.24
2023-04-20T04:55:22.013Z,49.58
2023-04-20T04:59:23.539Z,49.28
2023-04-20T05:03:25.158Z,49.64
2023-04-20T05:07:26.857Z,51.06
2023-04-20T05:11:29.939Z,51.20
2023-04-20T05:15:31.422Z,53.96
2023-04-20T05:19:32.788Z,55.30
2023-04-20T05:23:34.175Z,59.05
2023-04-20T05:27:37.421Z,58.11
2023-04-20T05:31:38.973Z,58.45
2023-04-20T05:35:40.435Z,58.80
2023-04-20T05:39:41.999Z,59.84
2023-04-20T05:43:44.857Z,62.06
2023-04-20T05:47:52.710Z,63.44
2023-04-20T05:51:54.240Z,62.13
2023-04-20T05:55:55.641Z,62.11
2023-04-20T05:59:58.606Z,62.68
2023-04-20T06:04:00.496Z,62.97
2023-04-20T06:08:03.190Z,63.39
2023-04-20T06:12:04.918Z,65.04
2023-04-20T06:16:08.111Z,65.30
2023-04-20T06:20:10.598Z,65.72
2023-04-20T06:24:11.984Z,65.63
2023-04-20T06:28:13.390Z,66.08
2023-04-20T06:32:16.111Z,66.36
2023-04-20T06:36:17.570Z,66.78
2023-04-20T06:40:19.048Z,65.89
2023-04-20T06:44:20.644Z,65.96
2023-04-20T06:48:32.153Z,67.03
2023-04-20T06:52:34.325Z,68.59
2023-04-20T06:56:35.959Z,70.81
2023-04-20T07:00:37.369Z,68.84
2023-04-20T07:04:40.138Z,68.64
2023-04-20T07:08:41.846Z,69.21
2023-04-20T07:12:44.255Z,72.00
2023-04-20T07:16:45.808Z,72.44
2023-04-20T07:20:48.612Z,72.35
2023-04-20T07:24:49.989Z,72.87
2023-04-20T07:28:51.950Z,73.24
2023-04-20T07:32:53.466Z,74.94
2023-04-20T07:36:56.252Z,74.78
2023-04-20T07:40:57.646Z,74.16
2023-04-20T07:44:59.318Z,74.84
2023-04-20T07:49:00.717Z,74.48
2023-04-20T07:53:03.532Z,74.38
2023-04-20T07:57:04.978Z,75.90
2023-04-20T08:01:06.577Z,74.28
2023-04-20T08:05:08.823Z,74.73
2023-04-20T08:09:13.256Z,75.08
2023-04-20T08:13:14.863Z,75.06
2023-04-20T08:17:16.271Z,74.52
2023-04-20T08:21:17.678Z,73.12
2023-04-20T08:25:20.584Z,74.31
2023-04-20T08:29:22.045Z,74.12
2023-04-20T08:33:23.518Z,74.41
2023-04-20T08:37:25.022Z,74.43
2023-04-20T08:41:27.872Z,73.08
2023-04-20T08:45:29.971Z,74.80
2023-04-20T08:49:31.783Z,73.37
2023-04-20T08:53:33.622Z,74.05
2023-04-20T08:57:36.406Z,71.22
2023-04-20T09:01:38.211Z,72.03
2023-04-20T09:05:39.597Z,72.64
2023-04-20T09:09:40.993Z,71.50
2023-04-20T09:13:43.996Z,69.42
2023-04-20T09:17:45.421Z,69.14
2023-04-20T09:21:48.997Z,68.59
2023-04-20T09:25:51.717Z,68.91
2023-04-20T09:29:58.343Z,68.55
2023-04-20T09:34:01.313Z,68.29
2023-04-20T09:38:02.944Z,68.38
2023-04-20T09:42:05.615Z,66.65
2023-04-20T09:46:09.093Z,68.04
2023-04-20T09:50:24.686Z,67.45
2023-04-20T09:54:32.118Z,70.59
2023-04-20T09:58:34.809Z,70.87
2023-04-20T10:02:38.147Z,69.77
2023-04-20T10:06:51.224Z,68.10
2023-04-20T10:10:52.688Z,67.89
2023-04-20T10:14:55.172Z,70.44
2023-04-20T10:18:59.797Z,67.72
2023-04-20T10:23:08.222Z,68.21
2023-04-20T10:27:20.361Z,70.91
2023-04-20T10:31:23.048Z,71.85
2023-04-20T10:35:25.871Z,72.61
2023-04-20T10:39:27.252Z,67.77
2023-04-20T10:43:28.655Z,68.26
2023-04-20T10:47:32.071Z,71.13
2023-04-20T10:51:35.076Z,71.07
2023-04-20T10:55:36.745Z,70.48
2023-04-20T10:59:38.153Z,69.24
2023-04-20T11:03:39.700Z,63.82
2023-04-20T11:07:50.961Z,60.62
2023-04-20T11:11:59.103Z,61.42
2023-04-20T11:16:10.075Z,60.09
2023-04-20T11:20:13.469Z,62.01
2023-04-20T11:24:19.521Z,62.26
2023-04-20T11:28:21.213Z,64.30
2023-04-20T11:32:23.049Z,64.39
2023-04-20T11:36:26.931Z,62.18
2023-04-20T11:40:29.676Z,61.97
2023-04-20T11:44:31.295Z,61.05
2023-04-20T11:48:32.725Z,60.36
2023-04-20T11:52:34.176Z,58.02
2023-04-20T11:56:36.989Z,56.91
2023-04-20T12:00:38.493Z,56.98
2023-04-20T12:04:39.959Z,55.68
2023-04-20T12:08:41.434Z,56.28
2023-04-20T12:12:44.229Z,55.72
2023-04-20T12:16:45.748Z,54.38
2023-04-20T12:20:47.217Z,53.58
2023-04-20T12:24:48.760Z,53.85
2023-04-20T12:28:51.498Z,52.96
2023-04-20T12:32:53.093Z,51.84
2023-04-20T12:36:54.566Z,49.24
2023-04-20T12:40:56.041Z,46.34
2023-04-20T12:44:58.834Z,47.31
2023-04-20T12:49:00.293Z,48.56
2023-04-20T12:53:01.955Z,51.95
2023-04-20T12:57:03.663Z,50.87
2023-04-20T13:01:06.585Z,49.74
2023-04-20T13:05:08.718Z,49.36
2023-04-20T13:09:10.111Z,48.04
2023-04-20T13:13:11.613Z,46.61
2023-04-20T13:17:14.442Z,45.29
2023-04-20T13:21:15.857Z,45.45
2023-04-20T13:25:17.384Z,44.43
2023-04-20T13:29:19.078Z,44.45
2023-04-20T13:33:22.226Z,45.13
2023-04-20T13:37:23.710Z,43.12
2023-04-20T13:41:25.142Z,42.53
2023-04-20T13:45:26.687Z,43.38
2023-04-20T13:49:29.493Z,39.06
2023-04-20T13:53:30.934Z,39.64
2023-04-20T13:57:32.516Z,39.85
2023-04-20T14:01:34.106Z,39.63
2023-04-20T14:05:38.122Z,39.89
2023-04-20T14:09:39.542Z,41.58
2023-04-20T14:13:41.249Z,40.28
2023-04-20T14:17:42.781Z,41.15
2023-04-20T14:21:45.577Z,40.66
2023-04-20T14:25:46.969Z,39.51
2023-04-20T14:29:49.332Z,40.06
2023-04-20T14:33:50.749Z,39.49
2023-04-20T14:37:53.966Z,40.88
2023-04-20T14:41:55.455Z,40.81
2023-04-20T14:45:56.910Z,41.07
2023-04-20T14:49:58.531Z,41.79
2023-04-20T14:54:01.640Z,41.22
2023-04-20T14:58:03.127Z,40.82
2023-04-20T15:02:04.559Z,40.10
2023-04-20T15:06:06.932Z,40.06
2023-04-20T15:10:09.877Z,39.61
2023-04-20T15:14:11.299Z,39.87
2023-04-20T15:18:12.708Z,40.44
2023-04-20T15:22:14.286Z,40.41
2023-04-20T15:26:17.076Z,40.31
2023-04-20T15:30:18.669Z,40.78
2023-04-20T15:34:20.733Z,39.86
2023-04-20T15:38:22.493Z,41.73
2023-04-20T15:42:25.349Z,41.10
2023-04-20T15:46:27.161Z,41.10
2023-04-20T15:50:28.638Z,41.29
2023-04-20T15:54:30.087Z,39.56
2023-04-20T15:58:33.357Z,40.08
2023-04-20T16:02:35.624Z,41.44
2023-04-20T16:06:40.865Z,41.12
2023-04-20T16:10:42.265Z,41.07
2023-04-20T16:14:45.046Z,41.73
2023-04-20T16:18:46.491Z,41.80
2023-04-20T16:22:48.137Z,40.74
2023-04-20T16:26:49.776Z,40.56
2023-04-20T16:30:52.564Z,40.78
2023-04-20T16:34:54.453Z,41.20
2023-04-20T16:38:55.970Z,40.32
2023-04-20T16:42:57.427Z,40.70
2023-04-20T16:47:00.279Z,40.61
2023-04-20T16:51:01.863Z,40.75
2023-04-20T16:55:03.609Z,40.30
2023-04-20T16:59:05.466Z,39.91
2023-04-20T17:03:08.344Z,40.04
2023-04-20T17:07:09.909Z,44.50
2023-04-20T17:11:11.401Z,47.24
2023-04-20T17:15:12.940Z,48.40
2023-04-20T17:19:15.961Z,49.30
2023-04-20T17:23:18.103Z,49.06
2023-04-20T17:27:20.178Z,48.76
2023-04-20T17:31:21.653Z,49.23
2023-04-20T17:35:24.751Z,49.08
2023-04-20T17:39:26.525Z,50.17
2023-04-20T17:43:27.945Z,52.64
2023-04-20T17:47:29.354Z,55.94
2023-04-20T17:51:32.306Z,54.55
2023-04-20T17:55:33.994Z,54.81
2023-04-20T17:59:35.406Z,54.30
2023-04-20T18:03:37.195Z,54.09
2023-04-20T18:07:40.142Z,53.98
2023-04-20T18:11:41.639Z,54.28
2023-04-20T18:15:43.062Z,56.34
2023-04-20T18:19:44.507Z,58.54
2023-04-20T18:23:47.235Z,58.34
2023-04-20T18:27:48.638Z,59.05
2023-04-20T18:31:50.221Z,59.00
2023-04-20T18:35:51.760Z,59.55
2023-04-20T18:39:54.580Z,58.57
2023-04-20T18:43:56.427Z,58.95
2023-04-20T18:47:57.966Z,58.54
2023-04-20T18:51:59.640Z,57.32
2023-04-20T18:56:02.576Z,57.69
2023-04-20T19:00:04.853Z,58.19
2023-04-20T19:04:06.970Z,57.80
2023-04-20T19:08:08.681Z,57.02
2023-04-20T19:12:11.463Z,57.37
2023-04-20T19:16:12.951Z,57.38
2023-04-20T19:20:14.445Z,57.02
2023-04-20T19:24:16.337Z,58.11
2023-04-20T19:28:19.246Z,59.19
2023-04-20T19:32:20.966Z,60.12
2023-04-20T19:36:22.496Z,59.90
2023-04-20T19:40:24.297Z,59.91
2023-04-20T19:44:27.015Z,60.84
2023-04-20T19:48:28.600Z,61.44
2023-04-20T19:52:30.045Z,64.37
2023-04-20T19:56:31.642Z,64.41
2023-04-20T20:00:34.529Z,64.18
2023-04-20T20:04:36.193Z,66.24
2023-04-20T20:08:38.042Z,66.25
2023-04-20T20:12:39.536Z,68.32
2023-04-20T20:16:42.341Z,68.01
2023-04-20T20:20:44.070Z,70.25
2023-04-20T20:24:45.517Z,70.00
2023-04-20T20:28:46.898Z,70.98
2023-04-20T20:32:49.762Z,69.17
2023-04-20T20:36:51.462Z,69.88
2023-04-20T20:40:53.030Z,70.89
2023-04-20T20:44:54.473Z,70.91
2023-04-20T20:48:59.456Z,72.05
2023-04-20T20:53:03.150Z,74.87
2023-04-20T20:57:04.686Z,75.58
2023-04-20T21:01:06.187Z,76.97
2023-04-20T21:05:09.618Z,75.13
2023-04-20T21:09:11.023Z,72.11
2023-04-20T21:13:12.456Z,73.51
2023-04-20T21:17:13.878Z,73.99
2023-04-20T21:21:16.629Z,74.68
2023-04-20T21:25:18.505Z,76.06
2023-04-20T21:29:20.119Z,75.63
2023-04-20T21:33:21.814Z,75.39
2023-04-20T21:37:24.626Z,76.43
2023-04-20T21:41:27.142Z,77.73
2023-04-20T21:45:28.565Z,77.63
2023-04-20T21:49:29.935Z,77.56
2023-04-20T21:53:32.669Z,78.26
2023-04-20T21:57:34.066Z,78.20
2023-04-20T22:01:35.656Z,78.92
2023-04-20T22:05:37.606Z,79.32
2023-04-20T22:09:40.338Z,80.26
2023-04-20T22:13:41.751Z,80.95
2023-04-20T22:17:43.694Z,81.10
2023-04-20T22:21:45.116Z,82.29
2023-04-20T22:25:47.926Z,82.66
2023-04-20T22:29:49.334Z,81.23
2023-04-20T22:33:50.797Z,81.19
2023-04-20T22:37:52.405Z,81.98
2023-04-20T22:41:55.145Z,81.72
2023-04-20T22:45:56.556Z,82.85
2023-04-20T22:49:58.162Z,83.58
2023-04-20T22:53:59.528Z,82.94
2023-04-20T22:58:02.263Z,82.54
2023-04-20T23:02:03.806Z,82.66
2023-04-20T23:06:05.670Z,82.52
2023-04-20T23:10:09.060Z,83.04
2023-04-20T23:14:11.855Z,82.71
2023-04-20T23:18:13.340Z,83.75
2023-04-20T23:22:14.862Z,83.23
2023-04-20T23:26:17.288Z,83.43
2023-04-20T23:30:20.440Z,84.91
2023-04-20T23:34:21.921Z,84.06
2023-04-20T23:38:23.589Z,83.06
2023-04-20T23:42:24.980Z,83.97
2023-04-20T23:46:29.588Z,83.98
2023-04-20T23:50:31.317Z,83.85
2023-04-20T23:54:33.462Z,83.79
2023-04-20T23:58:35.075Z,84.53
